createdAt,value
2023-03-17T00:00:44.463Z,0.65
2023-03-17T00:01:43.485Z,0.84
2023-03-17T00:02:43.584Z,0.87
2023-03-17T00:03:43.609Z,0.82
2023-03-17T00:04:43.645Z,0.78
2023-03-17T00:05:44.688Z,0.81
2023-03-17T00:06:43.728Z,0.64
2023-03-17T00:07:44.762Z,0.74
2023-03-17T00:08:44.808Z,0.89
2023-03-17T00:09:44.868Z,0.69
2023-03-17T00:10:44.996Z,1.47
2023-03-17T00:11:44.950Z,0.62
2023-03-17T00:12:45.008Z,0.78
2023-03-17T00:13:45.045Z,0.89
2023-03-17T00:14:45.094Z,0.88
2023-03-17T00:15:44.146Z,0.85
2023-03-17T00:16:44.197Z,0.67
2023-03-17T00:17:45.230Z,0.84
2023-03-17T00:18:45.271Z,0.97
2023-03-17T00:19:44.315Z,0.71
2023-03-17T00:20:45.368Z,0.68
2023-03-17T00:21:45.415Z,0.89
2023-03-17T00:22:45.488Z,0.91
2023-03-17T00:23:45.523Z,0.72
2023-03-17T00:24:45.587Z,0.73
2023-03-17T00:25:44.620Z,0.82
2023-03-17T00:26:44.712Z,0.78
2023-03-17T00:27:45.704Z,0.93
2023-03-17T00:28:44.766Z,0.85
2023-03-17T00:29:45.812Z,0.94
2023-03-17T00:30:44.869Z,0.74
2023-03-17T00:31:45.965Z,0.74
2023-03-17T00:32:46.009Z,0.73
2023-03-17T00:33:46.014Z,1.02
2023-03-17T00:34:46.085Z,0.97
2023-03-17T00:35:46.170Z,0.63
2023-03-17T00:36:46.178Z,0.79
2023-03-17T00:37:46.215Z,0.70
2023-03-17T00:38:46.306Z,0.75
2023-03-17T00:39:46.328Z,1.02
2023-03-17T00:40:46.367Z,0.62
2023-03-17T00:41:49.479Z,0.81
2023-03-17T00:42:46.422Z,0.83
2023-03-17T00:43:46.432Z,0.76
2023-03-17T00:44:46.430Z,0.80
2023-03-17T00:45:46.386Z,0.91
2023-03-17T00:46:46.695Z,1.13
2023-03-17T00:47:46.384Z,0.83
2023-03-17T00:48:46.385Z,0.92
2023-03-17T00:49:46.380Z,0.97
2023-03-17T00:50:46.363Z,0.94
2023-03-17T00:51:46.362Z,0.96
2023-03-17T00:52:46.377Z,0.78
2023-03-17T00:53:46.343Z,1.02
2023-03-17T00:54:46.351Z,0.75
2023-03-17T00:55:46.334Z,1.06
2023-03-17T00:56:45.322Z,0.90
2023-03-17T00:57:46.337Z,0.89
2023-03-17T00:58:45.295Z,0.86
2023-03-17T00:59:45.296Z,0.84
2023-03-17T01:00:46.320Z,0.63
2023-03-17T01:01:45.296Z,0.72
2023-03-17T01:02:46.275Z,0.81
2023-03-17T01:03:46.254Z,0.81
2023-03-17T01:04:52.922Z,0.97
2023-03-17T01:05:46.254Z,0.74
2023-03-17T01:06:46.244Z,0.95
2023-03-17T01:07:46.241Z,0.75
2023-03-17T01:08:46.272Z,0.84
2023-03-17T01:09:46.227Z,1.17
2023-03-17T01:10:46.220Z,0.89
2023-03-17T01:11:46.231Z,0.98
2023-03-17T01:12:46.288Z,0.92
2023-03-17T01:13:46.223Z,1.04
2023-03-17T01:14:46.195Z,0.98
2023-03-17T01:15:46.182Z,0.67
2023-03-17T01:16:46.281Z,1.03
2023-03-17T01:17:46.166Z,1.02
2023-03-17T01:18:45.219Z,0.95
2023-03-17T01:19:45.152Z,0.77
2023-03-17T01:20:46.148Z,0.89
2023-03-17T01:21:46.159Z,0.74
2023-03-17T01:22:46.148Z,0.97
2023-03-17T01:23:46.123Z,1.13
2023-03-17T01:24:45.117Z,0.80
2023-03-17T01:25:46.124Z,0.74
2023-03-17T01:26:46.112Z,1.18
2023-03-17T01:27:46.123Z,0.99
2023-03-17T01:28:46.127Z,0.91
2023-03-17T01:29:46.125Z,0.96
2023-03-17T01:30:46.155Z,0.88
2023-03-17T01:31:46.346Z,1.16
2023-03-17T01:32:46.331Z,0.88
2023-03-17T01:33:46.370Z,1.28
2023-03-17T01:34:46.437Z,0.82
2023-03-17T01:35:46.559Z,1.18
2023-03-17T01:36:46.504Z,0.91
2023-03-17T01:37:46.565Z,0.98
2023-03-17T01:38:46.633Z,0.95
2023-03-17T01:39:45.673Z,1.14
2023-03-17T01:40:46.743Z,1.01
2023-03-17T01:41:46.801Z,0.94
2023-03-17T01:42:46.873Z,1.01
2023-03-17T01:43:46.937Z,1.04
2023-03-17T01:44:46.983Z,0.94
2023-03-17T01:45:47.162Z,0.90
2023-03-17T01:46:47.121Z,0.84
2023-03-17T01:47:47.160Z,1.10
2023-03-17T01:48:47.233Z,0.93
2023-03-17T01:49:47.291Z,0.83
2023-03-17T01:50:46.359Z,0.99
2023-03-17T01:51:47.417Z,1.02
2023-03-17T01:52:47.475Z,1.03
2023-03-17T01:53:46.516Z,1.25
2023-03-17T01:54:47.612Z,1.12
2023-03-17T01:55:46.642Z,0.97
2023-03-17T01:56:46.728Z,0.84
2023-03-17T01:57:46.775Z,0.77
2023-03-17T01:58:47.832Z,1.15
2023-03-17T01:59:47.920Z,0.98
2023-03-17T02:00:48.081Z,0.97
2023-03-17T02:01:48.051Z,1.21
2023-03-17T02:02:48.083Z,0.91
2023-03-17T02:03:48.295Z,0.91
2023-03-17T02:04:48.234Z,1.21
2023-03-17T02:05:48.291Z,1.11
2023-03-17T02:06:57.504Z,1.04
2023-03-17T02:07:48.319Z,0.98
2023-03-17T02:08:48.319Z,0.72
2023-03-17T02:09:48.309Z,1.05
2023-03-17T02:10:48.322Z,0.85
2023-03-17T02:11:48.306Z,0.95
2023-03-17T02:12:48.333Z,0.85
2023-03-17T02:13:48.274Z,1.01
2023-03-17T02:14:48.287Z,1.10
2023-03-17T02:15:48.277Z,1.04
2023-03-17T02:16:48.318Z,1.15
2023-03-17T02:17:48.297Z,1.08
2023-03-17T02:18:48.284Z,1.16
2023-03-17T02:19:48.246Z,0.83
2023-03-17T02:20:47.254Z,0.80
2023-03-17T02:21:48.229Z,0.99
2023-03-17T02:22:47.211Z,0.75
2023-03-17T02:23:48.266Z,0.96
2023-03-17T02:24:48.232Z,1.15
2023-03-17T02:25:48.189Z,1.07
2023-03-17T02:26:47.208Z,0.85
2023-03-17T02:27:48.179Z,1.30
2023-03-17T02:28:48.162Z,1.03
2023-03-17T02:29:48.161Z,0.94
2023-03-17T02:30:48.197Z,0.71
2023-03-17T02:31:48.169Z,1.04
2023-03-17T02:32:48.168Z,1.21
2023-03-17T02:33:48.199Z,1.31
2023-03-17T02:34:48.136Z,1.11
2023-03-17T02:35:48.210Z,0.99
2023-03-17T02:36:48.311Z,1.15
2023-03-17T02:37:48.278Z,1.00
2023-03-17T02:38:48.300Z,0.86
2023-03-17T02:39:48.345Z,1.22
2023-03-17T02:40:48.352Z,1.09
2023-03-17T02:41:48.422Z,1.01
2023-03-17T02:42:48.462Z,1.14
2023-03-17T02:43:48.458Z,1.14
2023-03-17T02:44:48.500Z,0.87
2023-03-17T02:45:48.554Z,1.13
2023-03-17T02:46:48.575Z,1.09
2023-03-17T02:47:48.581Z,1.26
2023-03-17T02:48:48.696Z,1.38
2023-03-17T02:49:48.674Z,1.06
2023-03-17T02:50:47.663Z,1.24
2023-03-17T02:51:48.733Z,1.20
2023-03-17T02:52:48.725Z,1.18
2023-03-17T02:53:48.750Z,1.24
2023-03-17T02:54:48.781Z,1.38
2023-03-17T02:55:48.777Z,1.25
2023-03-17T02:56:48.839Z,0.99
2023-03-17T02:57:48.873Z,0.96
2023-03-17T02:58:48.935Z,0.96
2023-03-17T02:59:49.001Z,0.98
2023-03-17T03:00:49.016Z,1.03
2023-03-17T03:01:49.010Z,0.91
2023-03-17T03:02:49.105Z,1.14
2023-03-17T03:03:49.048Z,0.93
2023-03-17T03:04:49.056Z,1.08
2023-03-17T03:05:48.106Z,0.77
2023-03-17T03:06:49.119Z,0.89
2023-03-17T03:07:48.114Z,1.09
2023-03-17T03:08:48.127Z,0.90
2023-03-17T03:09:49.141Z,1.02
2023-03-17T03:10:48.172Z,1.05
2023-03-17T03:11:49.190Z,1.13
2023-03-17T03:12:49.347Z,1.22
2023-03-17T03:13:49.208Z,0.97
2023-03-17T03:14:49.246Z,1.02
2023-03-17T03:15:48.295Z,1.03
2023-03-17T03:16:49.286Z,1.03
2023-03-17T03:17:49.328Z,1.46
2023-03-17T03:18:48.328Z,1.16
2023-03-17T03:19:49.354Z,1.34
2023-03-17T03:20:49.386Z,1.07
2023-03-17T03:21:49.448Z,1.16
2023-03-17T03:22:49.425Z,1.10
2023-03-17T03:23:48.436Z,1.27
2023-03-17T03:24:49.451Z,1.03
2023-03-17T03:25:49.490Z,0.85
2023-03-17T03:26:49.554Z,1.17
2023-03-17T03:27:49.567Z,0.93
2023-03-17T03:28:49.592Z,1.12
2023-03-17T03:29:49.619Z,1.28
2023-03-17T03:30:49.776Z,1.08
2023-03-17T03:31:49.703Z,1.16
2023-03-17T03:32:49.773Z,1.56
2023-03-17T03:33:49.737Z,1.27
2023-03-17T03:34:48.770Z,1.02
2023-03-17T03:35:48.853Z,1.15
2023-03-17T03:36:48.817Z,1.34
2023-03-17T03:37:49.882Z,1.04
2023-03-17T03:38:48.875Z,1.07
2023-03-17T03:39:49.898Z,1.13
2023-03-17T03:40:49.937Z,1.12
2023-03-17T03:41:49.956Z,0.98
2023-03-17T03:42:49.991Z,0.84
2023-03-17T03:43:50.050Z,0.94
2023-03-17T03:44:49.077Z,1.29
2023-03-17T03:45:50.121Z,1.39
2023-03-17T03:46:49.224Z,1.14
2023-03-17T03:47:49.190Z,1.25
2023-03-17T03:48:50.219Z,1.28
2023-03-17T03:49:50.262Z,0.90
2023-03-17T03:50:50.292Z,1.11
2023-03-17T03:51:50.332Z,1.26
2023-03-17T03:52:50.344Z,1.44
2023-03-17T03:53:50.407Z,1.02
2023-03-17T03:54:50.424Z,1.13
2023-03-17T03:55:50.425Z,1.18
2023-03-17T03:56:50.474Z,1.08
2023-03-17T03:57:50.500Z,1.11
2023-03-17T03:58:50.527Z,1.41
2023-03-17T03:59:50.570Z,1.26
2023-03-17T04:00:50.611Z,1.15
2023-03-17T04:01:49.634Z,1.36
2023-03-17T04:02:50.716Z,1.26
2023-03-17T04:03:50.696Z,1.18
2023-03-17T04:04:49.739Z,1.14
2023-03-17T04:05:50.767Z,1.35
2023-03-17T04:06:50.774Z,1.11
2023-03-17T04:07:50.801Z,1.33
2023-03-17T04:08:50.856Z,1.26
2023-03-17T04:09:50.897Z,1.33
2023-03-17T04:10:50.911Z,1.34
2023-03-17T04:11:50.985Z,1.49
2023-03-17T04:12:50.013Z,1.38
2023-03-17T04:13:51.037Z,1.45
2023-03-17T04:14:51.058Z,1.27
2023-03-17T04:15:51.143Z,1.18
2023-03-17T04:16:50.102Z,1.29
2023-03-17T04:17:51.147Z,1.10
2023-03-17T04:18:51.271Z,1.24
2023-03-17T04:19:51.187Z,1.62
2023-03-17T04:20:51.214Z,1.15
2023-03-17T04:21:53.541Z,1.37
2023-03-17T04:22:50.248Z,1.41
2023-03-17T04:23:51.226Z,1.15
2023-03-17T04:24:51.223Z,1.27
2023-03-17T04:25:51.247Z,1.50
2023-03-17T04:26:51.219Z,1.12
2023-03-17T04:27:51.238Z,1.37
2023-03-17T04:28:51.228Z,1.36
2023-03-17T04:29:51.198Z,1.38
2023-03-17T04:30:51.199Z,1.06
2023-03-17T04:31:51.266Z,1.43
2023-03-17T04:32:51.276Z,1.08
2023-03-17T04:33:51.191Z,1.25
2023-03-17T04:34:51.151Z,1.21
2023-03-17T04:35:51.165Z,1.25
2023-03-17T04:36:51.140Z,1.26
2023-03-17T04:37:50.142Z,1.42
2023-03-17T04:38:50.136Z,1.26
2023-03-17T04:39:50.129Z,0.94
2023-03-17T04:40:50.135Z,1.15
2023-03-17T04:41:50.141Z,1.05
2023-03-17T04:42:51.112Z,1.29
2023-03-17T04:43:50.103Z,1.27
2023-03-17T04:44:51.111Z,1.40
2023-03-17T04:45:50.125Z,1.24
2023-03-17T04:46:50.148Z,1.45
2023-03-17T04:47:50.214Z,1.43
2023-03-17T04:48:51.269Z,1.23
2023-03-17T04:49:50.321Z,1.12
2023-03-17T04:50:51.384Z,1.29
2023-03-17T04:51:51.439Z,1.21
2023-03-17T04:52:51.532Z,1.31
2023-03-17T04:53:51.583Z,1.25
2023-03-17T04:54:51.612Z,1.44
2023-03-17T04:55:50.661Z,1.36
2023-03-17T04:56:51.696Z,1.19
2023-03-17T04:57:51.788Z,1.23
2023-03-17T04:58:50.825Z,1.55
2023-03-17T04:59:50.892Z,1.44
2023-03-17T05:00:51.950Z,1.42
2023-03-17T05:01:52.030Z,1.31
2023-03-17T05:02:52.060Z,1.56
2023-03-17T05:03:52.125Z,1.10
2023-03-17T05:04:52.164Z,1.46
2023-03-17T05:05:52.215Z,1.23
2023-03-17T05:06:51.284Z,1.37
2023-03-17T05:07:52.363Z,1.39
2023-03-17T05:08:52.413Z,1.29
2023-03-17T05:09:51.480Z,1.49
2023-03-17T05:10:51.577Z,1.57
2023-03-17T05:11:52.600Z,1.22
2023-03-17T05:12:51.667Z,1.15
2023-03-17T05:13:51.746Z,1.02
2023-03-17T05:14:52.776Z,1.24
2023-03-17T05:15:51.829Z,1.29
2023-03-17T05:16:53.001Z,1.24
2023-03-17T05:17:52.999Z,1.38
2023-03-17T05:18:53.001Z,1.05
2023-03-17T05:19:53.107Z,1.22
2023-03-17T05:20:52.169Z,1.31
2023-03-17T05:21:53.200Z,1.54
2023-03-17T05:22:53.259Z,1.58
2023-03-17T05:23:55.036Z,1.65
2023-03-17T05:24:53.332Z,1.65
2023-03-17T05:25:53.368Z,1.36
2023-03-17T05:26:53.316Z,1.07
2023-03-17T05:27:53.304Z,1.18
2023-03-17T05:28:52.309Z,1.53
2023-03-17T05:29:52.321Z,1.44
2023-03-17T05:30:52.363Z,1.21
2023-03-17T05:31:53.267Z,1.30
2023-03-17T05:32:53.302Z,1.13
2023-03-17T05:33:53.251Z,1.48
2023-03-17T05:34:53.268Z,1.45
2023-03-17T05:35:52.427Z,1.43
2023-03-17T05:36:53.233Z,1.56
2023-03-17T05:37:53.221Z,1.33
2023-03-17T05:38:52.234Z,1.31
2023-03-17T05:39:53.209Z,1.34
2023-03-17T05:40:53.214Z,1.39
2023-03-17T05:41:52.194Z,1.26
2023-03-17T05:42:53.186Z,1.30
2023-03-17T05:43:53.176Z,1.65
2023-03-17T05:44:53.182Z,1.38
2023-03-17T05:45:53.251Z,1.31
2023-03-17T05:46:52.192Z,0.98
2023-03-17T05:47:52.160Z,1.48
2023-03-17T05:48:53.181Z,1.45
2023-03-17T05:49:53.267Z,1.40
2023-03-17T05:50:53.304Z,1.41
2023-03-17T05:51:52.385Z,1.24
2023-03-17T05:52:53.449Z,1.10
2023-03-17T05:53:53.493Z,1.26
2023-03-17T05:54:52.572Z,1.12
2023-03-17T05:55:52.625Z,1.49
2023-03-17T05:56:52.693Z,1.48
2023-03-17T05:57:54.344Z,1.29
2023-03-17T05:58:53.798Z,1.51
2023-03-17T05:59:53.855Z,1.38
2023-03-17T06:00:53.922Z,1.20
2023-03-17T06:01:54.007Z,1.17
2023-03-17T06:02:54.038Z,1.44
2023-03-17T06:03:54.109Z,1.73
2023-03-17T06:04:53.181Z,1.61
2023-03-17T06:05:54.230Z,1.46
2023-03-17T06:06:53.329Z,1.50
2023-03-17T06:07:56.463Z,1.60
2023-03-17T06:08:54.336Z,1.46
2023-03-17T06:09:54.346Z,1.11
2023-03-17T06:10:54.334Z,1.32
2023-03-17T06:11:54.308Z,1.37
2023-03-17T06:12:54.292Z,1.28
2023-03-17T06:13:54.300Z,1.48
2023-03-17T06:14:53.333Z,1.40
2023-03-17T06:15:54.362Z,1.42
2023-03-17T06:16:54.280Z,1.56
2023-03-17T06:17:54.290Z,1.86
2023-03-17T06:18:54.264Z,1.49
2023-03-17T06:19:54.268Z,1.23
2023-03-17T06:20:54.254Z,1.71
2023-03-17T06:21:53.226Z,1.37
2023-03-17T06:23:03.790Z,1.29
2023-03-17T06:23:54.234Z,1.14
2023-03-17T06:24:56.069Z,1.09
2023-03-17T06:25:54.237Z,1.49
2023-03-17T06:26:54.209Z,1.22
2023-03-17T06:27:53.194Z,1.34
2023-03-17T06:28:54.191Z,1.50
2023-03-17T06:29:54.174Z,1.40
2023-03-17T06:30:54.233Z,1.15
2023-03-17T06:31:54.161Z,1.16
2023-03-17T06:32:54.167Z,1.46
2023-03-17T06:33:54.177Z,1.12
2023-03-17T06:34:54.149Z,1.39
2023-03-17T06:35:54.175Z,1.39
2023-03-17T06:36:54.161Z,1.23
2023-03-17T06:37:54.153Z,1.44
2023-03-17T06:38:53.125Z,1.20
2023-03-17T06:39:53.123Z,1.10
2023-03-17T06:40:54.164Z,1.07
2023-03-17T06:41:54.150Z,1.01
2023-03-17T06:42:54.136Z,1.16
2023-03-17T06:43:54.122Z,1.33
2023-03-17T06:44:54.223Z,1.04
2023-03-17T06:45:54.790Z,1.27
2023-03-17T06:46:53.099Z,1.29
2023-03-17T06:47:54.074Z,1.24
2023-03-17T06:48:54.127Z,1.14
2023-03-17T06:50:54.411Z,1.47
2023-03-17T06:51:53.112Z,1.35
2023-03-17T06:52:54.535Z,1.38
2023-03-17T06:53:53.152Z,1.39
2023-03-17T06:54:53.135Z,1.69
2023-03-17T06:55:53.713Z,1.32
2023-03-17T06:56:54.360Z,2.44
2023-03-17T06:57:54.176Z,2.89
2023-03-17T06:58:54.671Z,3.03
2023-03-17T06:59:54.139Z,3.16
2023-03-17T07:00:54.321Z,3.40
2023-03-17T07:01:54.351Z,2.78
2023-03-17T07:02:54.183Z,2.38
2023-03-17T07:03:54.183Z,2.24
2023-03-17T07:04:54.246Z,2.27
2023-03-17T07:05:53.236Z,2.44
2023-03-17T07:06:53.210Z,2.39
2023-03-17T07:07:54.272Z,2.21
2023-03-17T07:08:54.328Z,2.23
2023-03-17T07:09:53.383Z,2.34
2023-03-17T07:10:54.487Z,2.20
2023-03-17T07:11:54.429Z,1.99
2023-03-17T07:12:54.467Z,2.79
2023-03-17T07:13:54.449Z,2.19
2023-03-17T07:14:54.498Z,2.27
2023-03-17T07:15:55.463Z,1.85
2023-03-17T07:16:54.496Z,2.20
2023-03-17T07:17:54.513Z,2.09
2023-03-17T07:18:53.568Z,2.36
2023-03-17T07:19:53.629Z,2.31
2023-03-17T07:20:54.729Z,2.03
2023-03-17T07:21:54.770Z,1.97
2023-03-17T07:22:54.838Z,2.14
2023-03-17T07:23:54.839Z,1.86
2023-03-17T07:24:54.883Z,2.70
2023-03-17T07:25:54.933Z,2.15
2023-03-17T07:26:53.963Z,1.99
2023-03-17T07:27:53.983Z,2.51
2023-03-17T07:28:55.062Z,2.01
2023-03-17T07:29:55.052Z,2.31
2023-03-17T07:30:54.095Z,2.08
2023-03-17T07:31:55.199Z,2.20
2023-03-17T07:33:57.303Z,2.17
2023-03-17T07:35:55.139Z,1.60
2023-03-17T07:36:54.118Z,2.38
2023-03-17T07:42:54.076Z,2.12
2023-03-17T07:44:55.062Z,1.94
2023-03-17T07:47:55.037Z,1.44
2023-03-17T07:48:55.018Z,1.97
2023-03-17T07:52:55.004Z,1.82
2023-03-17T07:54:54.989Z,1.40
2023-03-17T07:55:55.434Z,2.04
2023-03-17T07:58:53.963Z,1.74
2023-03-17T07:59:54.981Z,1.87
2023-03-17T08:00:54.969Z,1.98
2023-03-17T08:04:54.927Z,2.27
2023-03-17T08:07:54.948Z,1.92
2023-03-17T08:14:53.846Z,1.65
2023-03-17T08:19:54.832Z,1.41
2023-03-17T08:21:53.830Z,1.83
2023-03-17T08:22:54.795Z,1.38
2023-03-17T08:23:54.805Z,1.70
2023-03-17T08:28:54.794Z,1.70
2023-03-17T08:30:54.855Z,1.69
2023-03-17T08:31:54.795Z,1.55
2023-03-17T08:33:54.727Z,1.60
2023-03-17T08:39:55.098Z,1.68
2023-03-17T08:42:55.255Z,1.75
2023-03-17T08:45:55.446Z,1.61
2023-03-17T08:46:55.516Z,1.94
2023-03-17T08:47:55.532Z,1.80
2023-03-17T08:48:55.576Z,1.86
2023-03-17T08:49:55.672Z,1.77
2023-03-17T08:51:55.779Z,1.85
2023-03-17T08:52:55.831Z,2.28
2023-03-17T08:53:55.881Z,1.49
2023-03-17T08:54:55.937Z,1.68
2023-03-17T08:55:55.992Z,2.09
2023-03-17T08:56:56.074Z,1.61
2023-03-17T08:57:56.142Z,1.59
2023-03-17T09:00:56.244Z,1.84
2023-03-17T09:01:56.428Z,1.85
2023-03-17T09:02:20.044Z,1.45
2023-03-17T09:02:56.398Z,1.93
2023-03-17T09:03:55.406Z,1.56
2023-03-17T09:04:56.419Z,1.56
2023-03-17T09:05:55.471Z,1.53
2023-03-17T09:07:03.208Z,1.74
2023-03-17T09:07:56.518Z,1.56
2023-03-17T09:08:55.704Z,1.72
2023-03-17T09:09:56.441Z,1.63
2023-03-17T09:10:55.446Z,1.60
2023-03-17T09:11:56.462Z,1.65
2023-03-17T09:12:56.427Z,1.45
2023-03-17T09:13:17.629Z,1.07
2023-03-17T09:13:55.482Z,1.95
2023-03-17T09:14:56.405Z,1.62
2023-03-17T09:15:56.492Z,1.74
2023-03-17T09:16:56.431Z,1.53
2023-03-17T09:17:56.400Z,1.55
2023-03-17T09:18:56.387Z,1.61
2023-03-17T09:19:55.381Z,1.36
2023-03-17T09:20:56.383Z,1.56
2023-03-17T09:21:55.366Z,2.06
2023-03-17T09:22:56.360Z,1.31
2023-03-17T09:23:55.370Z,1.25
2023-03-17T09:24:56.340Z,1.65
2023-03-17T09:25:56.361Z,1.30
2023-03-17T09:26:56.340Z,1.29
2023-03-17T09:27:56.327Z,1.57
2023-03-17T09:28:56.336Z,1.70
2023-03-17T09:29:56.323Z,1.29
2023-03-17T09:30:56.319Z,1.20
2023-03-17T09:31:40.338Z,1.07
2023-03-17T09:31:56.298Z,1.26
2023-03-17T09:32:56.372Z,1.28
2023-03-17T09:33:56.297Z,1.33
2023-03-17T09:35:56.314Z,0.92
2023-03-17T09:36:19.923Z,2.04
2023-03-17T09:37:56.280Z,1.12
2023-03-17T09:38:56.336Z,1.00
2023-03-17T09:39:56.411Z,1.19
2023-03-17T09:40:55.957Z,0.88
2023-03-17T09:41:56.502Z,1.08
2023-03-17T09:42:56.591Z,1.14
2023-03-17T09:43:56.634Z,1.14
2023-03-17T09:44:56.704Z,0.90
2023-03-17T09:45:56.712Z,1.35
2023-03-17T09:46:56.800Z,0.95
2023-03-17T09:47:56.712Z,0.82
2023-03-17T09:48:56.732Z,1.03
2023-03-17T09:49:55.807Z,0.90
2023-03-17T09:50:56.988Z,0.95
2023-03-17T09:51:56.877Z,1.43
2023-03-17T09:52:56.878Z,0.98
2023-03-17T09:53:55.889Z,1.24
2023-03-17T09:54:55.917Z,0.93
2023-03-17T09:55:57.527Z,1.04
2023-03-17T09:56:56.961Z,0.90
2023-03-17T09:57:57.040Z,1.23
2023-03-17T09:58:56.060Z,0.84
2023-03-17T09:59:57.063Z,1.01
2023-03-17T10:00:57.206Z,1.00
2023-03-17T10:01:57.169Z,1.00
2023-03-17T10:02:57.138Z,0.86
2023-03-17T10:03:57.154Z,0.92
2023-03-17T10:04:56.225Z,1.00
2023-03-17T10:05:56.272Z,1.19
2023-03-17T10:06:57.210Z,1.14
2023-03-17T10:07:57.256Z,1.13
2023-03-17T10:08:56.309Z,1.03
2023-03-17T10:09:06.300Z,2.78
2023-03-17T10:09:57.369Z,1.07
2023-03-17T10:10:57.432Z,1.08
2023-03-17T10:11:25.415Z,3.26
2023-03-17T10:11:57.462Z,0.90
2023-03-17T10:12:26.120Z,3.36
2023-03-17T10:12:57.600Z,0.91
2023-03-17T10:13:25.284Z,2.49
2023-03-17T10:13:56.568Z,1.03
2023-03-17T10:14:26.497Z,2.74
2023-03-17T10:14:57.611Z,1.02
2023-03-17T10:15:26.926Z,2.40
2023-03-17T10:15:57.672Z,0.94
2023-03-17T10:16:57.661Z,0.91
2023-03-17T10:17:56.670Z,1.00
2023-03-17T10:18:56.704Z,0.88
2023-03-17T10:19:57.693Z,0.77
2023-03-17T10:20:57.760Z,0.73
2023-03-17T10:21:57.727Z,1.02
2023-03-17T10:22:57.780Z,0.99
2023-03-17T10:23:57.780Z,0.94
2023-03-17T10:24:57.756Z,1.09
2023-03-17T10:25:57.771Z,1.25
2023-03-17T10:26:57.778Z,0.86
2023-03-17T10:27:57.756Z,0.61
2023-03-17T10:28:57.790Z,1.15
2023-03-17T10:29:57.812Z,0.97
2023-03-17T10:30:57.821Z,1.35
2023-03-17T10:31:58.729Z,1.00
2023-03-17T10:32:57.941Z,0.96
2023-03-17T10:33:56.862Z,1.04
2023-03-17T10:34:57.899Z,1.25
2023-03-17T10:35:57.952Z,0.82
2023-03-17T10:36:57.925Z,1.04
2023-03-17T10:38:13.480Z,1.25
2023-03-17T10:38:57.962Z,0.92
2023-03-17T10:39:56.903Z,1.01
2023-03-17T10:40:57.914Z,1.01
2023-03-17T10:41:57.898Z,1.06
2023-03-17T10:42:20.854Z,3.18
2023-03-17T10:42:57.887Z,1.16
2023-03-17T10:43:20.424Z,1.84
2023-03-17T10:43:57.904Z,1.13
2023-03-17T10:44:56.919Z,0.93
2023-03-17T10:45:57.896Z,0.99
2023-03-17T10:46:58.053Z,1.08
2023-03-17T10:47:57.847Z,1.02
2023-03-17T10:48:56.904Z,1.01
2023-03-17T10:49:57.845Z,1.16
2023-03-17T10:50:56.828Z,0.98
2023-03-17T10:51:57.957Z,1.08
2023-03-17T10:52:57.848Z,1.24
2023-03-17T10:53:56.826Z,1.15
2023-03-17T10:54:56.827Z,1.20
2023-03-17T10:55:57.798Z,1.23
2023-03-17T10:56:59.145Z,1.06
2023-03-17T10:57:57.785Z,0.94
2023-03-17T10:58:57.808Z,0.91
2023-03-17T10:59:56.862Z,1.34
2023-03-17T11:00:57.938Z,1.15
2023-03-17T11:01:57.930Z,0.92
2023-03-17T11:02:57.965Z,1.11
2023-03-17T11:03:57.053Z,0.65
2023-03-17T11:04:57.059Z,1.12
2023-03-17T11:05:58.100Z,0.93
2023-03-17T11:06:58.153Z,0.85
2023-03-17T11:07:57.134Z,0.98
2023-03-17T11:08:58.154Z,1.07
2023-03-17T11:09:58.186Z,1.01
2023-03-17T11:10:58.199Z,0.84
2023-03-17T11:11:58.248Z,1.07
2023-03-17T11:12:58.272Z,0.72
2023-03-17T11:13:58.270Z,1.16
2023-03-17T11:14:58.314Z,1.12
2023-03-17T11:15:58.414Z,0.85
2023-03-17T11:16:57.534Z,1.07
2023-03-17T11:17:57.363Z,1.03
2023-03-17T11:18:57.371Z,0.86
2023-03-17T11:19:57.445Z,0.92
2023-03-17T11:20:57.421Z,0.96
2023-03-17T11:21:58.432Z,0.94
2023-03-17T11:22:58.432Z,1.23
2023-03-17T11:23:57.484Z,0.96
2023-03-17T11:24:58.535Z,0.87
2023-03-17T11:25:58.448Z,1.07
2023-03-17T11:26:58.442Z,0.84
2023-03-17T11:27:58.486Z,0.74
2023-03-17T11:28:58.444Z,0.83
2023-03-17T11:29:58.496Z,1.02
2023-03-17T11:30:58.464Z,1.04
2023-03-17T11:31:57.662Z,0.95
2023-03-17T11:32:58.546Z,0.92
2023-03-17T11:33:58.475Z,0.83
2023-03-17T11:34:58.508Z,0.85
2023-03-17T11:35:58.596Z,1.03
2023-03-17T11:38:57.500Z,0.66
2023-03-17T11:40:26.091Z,1.48
2023-03-17T11:41:59.025Z,0.79
2023-03-17T11:45:58.688Z,0.83
2023-03-17T11:47:59.975Z,0.98
2023-03-17T11:48:58.637Z,0.84
2023-03-17T11:50:00.483Z,1.00
2023-03-17T11:50:58.599Z,0.91
2023-03-17T11:51:57.600Z,0.79
2023-03-17T11:52:58.630Z,0.92
2023-03-17T11:53:26.222Z,2.04
2023-03-17T11:53:58.592Z,0.83
2023-03-17T11:54:59.692Z,1.00
2023-03-17T11:55:58.605Z,0.74
2023-03-17T11:56:58.630Z,1.21
2023-03-17T11:57:58.664Z,0.90
2023-03-17T11:58:57.680Z,0.78
2023-03-17T11:59:58.736Z,0.88
2023-03-17T12:00:58.752Z,0.79
2023-03-17T12:01:58.736Z,0.86
2023-03-17T12:02:58.778Z,0.67
2023-03-17T12:03:57.983Z,0.56
2023-03-17T12:04:58.835Z,1.21
2023-03-17T12:05:58.854Z,0.75
2023-03-17T12:06:58.879Z,0.82
2023-03-17T12:07:58.957Z,0.94
2023-03-17T12:08:58.988Z,1.01
2023-03-17T12:09:58.983Z,0.92
2023-03-17T12:10:11.446Z,1.07
2023-03-17T12:10:59.020Z,0.91
2023-03-17T12:11:59.049Z,0.83
2023-03-17T12:12:59.089Z,1.85
2023-03-17T12:13:59.112Z,0.82
2023-03-17T12:14:59.145Z,1.20
2023-03-17T12:15:59.225Z,0.75
2023-03-17T12:16:59.226Z,0.83
2023-03-17T12:17:58.256Z,0.59
2023-03-17T12:18:59.279Z,0.88
2023-03-17T12:19:59.343Z,0.71
2023-03-17T12:20:59.361Z,0.65
2023-03-17T12:21:59.387Z,0.80
2023-03-17T12:22:59.453Z,0.66
2023-03-17T12:23:59.479Z,0.90
2023-03-17T12:24:59.503Z,0.51
2023-03-17T12:25:59.569Z,0.89
2023-03-17T12:26:59.603Z,1.00
2023-03-17T12:27:59.657Z,0.91
2023-03-17T12:28:59.671Z,0.66
2023-03-17T12:29:35.589Z,2.51
2023-03-17T12:29:59.811Z,0.98
2023-03-17T12:30:59.798Z,0.78
2023-03-17T12:31:59.835Z,0.65
2023-03-17T12:32:58.926Z,0.88
2023-03-17T12:33:59.919Z,0.85
2023-03-17T12:34:59.959Z,0.82
2023-03-17T12:36:00.104Z,0.76
2023-03-17T12:37:00.111Z,0.91
2023-03-17T12:38:00.515Z,0.63
2023-03-17T12:39:00.163Z,1.00
2023-03-17T12:40:00.231Z,0.74
2023-03-17T12:41:00.286Z,0.71
2023-03-17T12:42:01.823Z,0.90
2023-03-17T12:43:00.365Z,0.96
2023-03-17T12:44:02.642Z,1.09
2023-03-17T12:45:00.578Z,0.71
2023-03-17T12:54:36.762Z,1.02
2023-03-17T12:55:36.511Z,0.84
2023-03-17T12:56:36.166Z,0.81
2023-03-17T13:08:01.747Z,0.92
2023-03-17T13:09:01.830Z,0.53
2023-03-17T13:10:01.886Z,1.01
2023-03-17T13:56:15.539Z,0.96
2023-03-17T13:57:15.755Z,0.79
2023-03-17T13:58:15.767Z,0.78
2023-03-17T14:01:15.834Z,0.73
2023-03-17T14:02:15.749Z,0.62
2023-03-17T14:03:15.962Z,0.45
2023-03-17T14:04:15.874Z,0.48
2023-03-17T14:07:15.911Z,0.77
2023-03-17T14:08:16.250Z,1.11
2023-03-17T14:09:15.942Z,0.91
2023-03-17T14:10:16.072Z,0.76
2023-03-17T14:11:16.635Z,0.67
2023-03-17T14:12:16.009Z,0.64
2023-03-17T14:13:16.139Z,1.93
2023-03-17T14:14:05.390Z,0.56
2023-03-17T14:15:07.995Z,0.77
2023-03-17T14:15:16.067Z,0.69
2023-03-17T14:17:16.282Z,0.46
2023-03-17T14:18:16.039Z,0.43
2023-03-17T14:19:16.075Z,0.78
2023-03-17T14:20:05.397Z,0.56
2023-03-17T14:20:16.105Z,0.61
2023-03-17T14:21:08.931Z,0.80
2023-03-17T14:21:16.221Z,0.70
2023-03-17T14:22:05.413Z,0.66
2023-03-17T14:22:16.224Z,0.57
2023-03-17T14:23:05.366Z,0.67
2023-03-17T14:24:05.360Z,0.63
2023-03-17T14:25:16.409Z,0.70
2023-03-17T14:26:16.443Z,0.79
2023-03-17T14:27:16.462Z,0.61
2023-03-17T14:28:16.500Z,0.98
2023-03-17T14:29:05.444Z,0.55
2023-03-17T14:29:15.538Z,1.14
2023-03-17T14:30:16.599Z,0.73
2023-03-17T14:31:16.658Z,0.82
2023-03-17T14:32:16.839Z,0.62
2023-03-17T14:33:16.713Z,0.63
2023-03-17T14:34:16.728Z,0.70
2023-03-17T14:35:16.737Z,0.76
2023-03-17T14:36:16.928Z,0.91
2023-03-17T14:37:16.757Z,0.46
2023-03-17T14:38:16.935Z,0.58
2023-03-17T14:39:16.843Z,0.72
2023-03-17T14:40:16.928Z,0.85
2023-03-17T14:41:16.839Z,0.59
2023-03-17T14:42:16.916Z,1.13
2023-03-17T14:43:16.236Z,0.74
2023-03-17T14:44:16.984Z,0.55
2023-03-17T14:45:15.986Z,0.68
2023-03-17T14:46:17.009Z,0.50
2023-03-17T14:47:17.045Z,0.66
2023-03-17T14:48:17.027Z,0.71
2023-03-17T14:49:17.036Z,1.07
2023-03-17T14:50:17.140Z,0.75
2023-03-17T14:51:17.024Z,0.68
2023-03-17T14:52:05.375Z,0.47
2023-03-17T14:52:17.108Z,0.79
2023-03-17T14:53:05.424Z,0.79
2023-03-17T14:53:17.163Z,0.83
2023-03-17T14:54:05.439Z,0.64
2023-03-17T14:54:17.062Z,0.90
2023-03-17T14:55:05.516Z,0.58
2023-03-17T14:55:17.146Z,0.93
2023-03-17T14:56:16.173Z,0.65
2023-03-17T14:57:05.587Z,0.66
2023-03-17T14:57:17.377Z,0.73
2023-03-17T14:58:17.389Z,0.86
2023-03-17T14:59:17.414Z,0.46
2023-03-17T15:00:17.454Z,0.73
2023-03-17T15:01:05.857Z,0.56
2023-03-17T15:01:17.694Z,0.92
2023-03-17T15:02:05.817Z,0.58